Time;durP1;ratioP1;P1;durP2;ratioP2;P2;SDS_P1;SDS_P2;PMS_P1;PMS_P2;Temp;Humidity;BMP_temperature;BMP_pressure;BME280_temperature;BME280_humidity;BME280_pressure;Samples;Min_cycle;Max_cycle;Signal;HPM_P1;HPM_P2
2023/09/02 00:01:41;;;;;;;23.27;14.77;;;22.50;95.90;;;;;;5033774;28;20104;-68
2023/09/02 00:04:44;;;;;;;29.00;14.30;;;22.40;96.10;;;;;;5033326;28;20045;-68
2023/09/02 00:07:48;;;;;;;26.23;14.18;;;22.50;96.00;;;;;;5033588;28;20512;-68
2023/09/02 00:10:53;;;;;;;28.27;14.73;;;22.50;95.80;;;;;;5033405;28;20041;-67
2023/09/02 00:13:56;;;;;;;27.27;14.45;;;22.50;95.90;;;;;;5033264;28;20044;-68
2023/09/02 00:17:00;;;;;;;23.63;13.50;;;22.40;96.00;;;;;;5033256;28;20053;-67
2023/09/02 00:20:05;;;;;;;26.42;13.40;;;22.30;96.30;;;;;;5033155;28;20089;-69
2023/09/02 00:23:09;;;;;;;28.33;13.95;;;22.20;96.20;;;;;;5032601;28;20044;-68
2023/09/02 00:26:13;;;;;;;23.75;13.20;;;22.30;96.10;;;;;;5033019;28;20052;-68
2023/09/02 00:29:18;;;;;;;25.77;14.35;;;22.30;96.10;;;;;;5032482;28;20041;-69
2023/09/02 00:32:23;;;;;;;32.80;13.80;;;22.30;96.00;;;;;;5032087;28;20405;-69
2023/09/02 00:35:27;;;;;;;27.52;12.70;;;22.40;96.30;;;;;;5032822;28;20045;-68
2023/09/02 00:38:31;;;;;;;25.38;12.98;;;22.40;96.20;;;;;;5032703;28;20056;-68
2023/09/02 00:41:48;;;;;;;27.90;14.02;;;22.40;96.10;;;;;;5032909;28;20041;-68
2023/09/02 00:44:52;;;;;;;25.70;14.52;;;22.30;96.10;;;;;;5032515;28;20036;-68
2023/09/02 00:48:00;;;;;;;26.63;14.38;;;22.30;96.10;;;;;;5032868;28;20040;-68
2023/09/02 00:51:04;;;;;;;25.77;13.45;;;22.30;96.30;;;;;;5032528;28;20064;-68
2023/09/02 00:54:08;;;;;;;29.58;14.65;;;22.30;96.20;;;;;;5032611;28;20048;-67
2023/09/02 00:57:13;;;;;;;26.70;14.30;;;22.30;96.40;;;;;;5032372;28;20052;-68
2023/09/02 01:00:17;;;;;;;31.38;13.95;;;22.30;96.40;;;;;;5032637;28;20056;-68
2023/09/02 01:03:24;;;;;;;22.73;14.02;;;22.30;96.40;;;;;;5032642;28;20045;-68
2023/09/02 01:06:28;;;;;;;31.73;14.80;;;22.10;96.20;;;;;;5032108;28;20060;-68
2023/09/02 01:09:32;;;;;;;26.15;14.80;;;22.20;96.20;;;;;;5032510;28;20121;-67
2023/09/02 01:12:36;;;;;;;24.63;13.80;;;22.10;96.20;;;;;;5032431;28;20056;-67
2023/09/02 01:15:40;;;;;;;24.38;14.27;;;22.00;96.30;;;;;;5031122;28;20037;-67
2023/09/02 01:18:45;;;;;;;22.85;14.27;;;22.00;96.60;;;;;;5032043;28;20056;-68
2023/09/02 01:21:58;;;;;;;26.38;14.98;;;21.90;96.60;;;;;;5032325;28;20040;-68
2023/09/02 01:25:12;;;;;;;26.67;15.05;;;21.90;96.60;;;;;;5031041;28;20056;-68
2023/09/02 01:28:20;;;;;;;30.17;14.50;;;21.70;96.60;;;;;;5032212;28;20071;-68
2023/09/02 01:31:25;;;;;;;23.38;13.77;;;21.80;96.80;;;;;;5030995;28;20044;-68
2023/09/02 01:34:31;;;;;;;22.75;12.93;;;21.70;96.70;;;;;;5031032;28;20072;-67
2023/09/02 01:37:44;;;;;;;27.23;14.18;;;21.80;97.00;;;;;;5031422;28;20092;-68
2023/09/02 01:40:51;;;;;;;27.70;13.70;;;21.80;97.00;;;;;;5031711;28;20040;-68
2023/09/02 01:43:56;;;;;;;21.90;13.07;;;21.70;96.90;;;;;;5031799;28;20061;-68
2023/09/02 01:47:01;;;;;;;23.38;12.52;;;23.10;97.20;;;;;;5031661;28;20087;-68
2023/09/02 01:50:09;;;;;;;20.10;11.90;;;21.70;97.00;;;;;;5031747;28;20064;-68
2023/09/02 01:53:14;;;;;;;23.60;12.27;;;21.70;96.90;;;;;;5031547;28;20060;-68
2023/09/02 01:56:19;;;;;;;22.10;12.07;;;21.60;97.10;;;;;;5031583;28;20048;-68
2023/09/02 01:59:23;;;;;;;23.17;12.00;;;21.60;97.40;;;;;;5030508;28;20401;-68
2023/09/02 02:02:27;;;;;;;24.75;13.05;;;21.00;96.90;;;;;;5030259;28;20045;-68
2023/09/02 02:05:45;;;;;;;22.55;11.88;;;21.70;96.90;;;;;;5031111;28;20069;-68
2023/09/02 02:09:05;;;;;;;24.02;12.55;;;21.70;97.10;;;;;;5031483;28;20518;-68
2023/09/02 02:12:10;;;;;;;27.95;12.95;;;21.60;97.30;;;;;;5030441;28;20068;-68
2023/09/02 02:15:13;;;;;;;25.10;12.77;;;21.50;97.30;;;;;;5030380;28;20052;-68
2023/09/02 02:18:17;;;;;;;21.52;12.10;;;21.60;97.50;;;;;;5030941;28;20093;-67
2023/09/02 02:21:21;;;;;;;25.05;13.50;;;21.50;97.50;;;;;;5053375;28;20124;-67
2023/09/02 02:24:25;;;;;;;21.40;11.20;;;21.50;97.30;;;;;;5030315;28;20048;-66
2023/09/02 02:27:29;;;;;;;21.70;11.23;;;21.40;97.20;;;;;;5030860;28;20049;-68
2023/09/02 02:30:33;;;;;;;25.05;11.43;;;21.40;97.60;;;;;;5031053;28;20037;-68
2023/09/02 02:33:37;;;;;;;24.60;12.02;;;21.30;97.60;;;;;;5030718;28;20515;-67
2023/09/02 02:36:41;;;;;;;22.77;12.38;;;21.20;97.60;;;;;;5030667;28;20048;-67
2023/09/02 02:39:45;;;;;;;19.25;11.93;;;21.20;97.80;;;;;;5030988;28;20052;-68
2023/09/02 02:42:49;;;;;;;22.02;11.63;;;21.20;97.90;;;;;;5030810;28;20045;-68
2023/09/02 02:45:53;;;;;;;25.52;12.77;;;21.20;98.10;;;;;;5030363;28;20045;-70
2023/09/02 02:48:57;;;;;;;28.17;12.43;;;21.20;98.00;;;;;;5030660;28;20044;-68
2023/09/02 02:52:02;;;;;;;17.80;11.88;;;21.20;97.90;;;;;;5029774;28;20040;-68
2023/09/02 02:55:07;;;;;;;19.05;11.77;;;21.20;97.90;;;;;;5030032;28;20052;-68
2023/09/02 02:58:12;;;;;;;24.98;11.98;;;21.00;97.90;;;;;;5029763;28;20056;-68
2023/09/02 03:01:16;;;;;;;19.73;11.02;;;21.00;98.20;;;;;;5030059;28;20056;-68
2023/09/02 03:04:20;;;;;;;23.70;11.88;;;21.00;98.20;;;;;;5052604;28;20040;-68
2023/09/02 03:07:24;;;;;;;21.85;11.77;;;21.10;98.30;;;;;;5029961;28;20040;-68
2023/09/02 03:10:28;;;;;;;24.63;12.13;;;21.00;98.20;;;;;;5030793;28;20048;-68
2023/09/02 03:13:35;;;;;;;20.40;11.70;;;21.00;98.30;;;;;;5029687;28;20040;-68
2023/09/02 03:16:43;;;;;;;20.00;11.65;;;21.10;98.30;;;;;;5029404;28;20041;-68
2023/09/02 03:19:48;;;;;;;19.15;11.65;;;21.00;98.20;;;;;;5029629;28;20099;-68
2023/09/02 03:22:56;;;;;;;22.63;12.05;;;21.00;98.30;;;;;;5030207;28;20203;-68
2023/09/02 03:26:11;;;;;;;23.27;12.10;;;21.00;98.30;;;;;;5030317;28;20048;-68
2023/09/02 03:29:18;;;;;;;21.63;11.95;;;21.00;98.30;;;;;;5029782;28;20048;-67
2023/09/02 03:32:26;;;;;;;22.90;12.13;;;20.90;98.10;;;;;;5029491;28;20053;-68
2023/09/02 03:35:37;;;;;;;25.65;12.00;;;20.90;98.30;;;;;;5030472;28;20056;-68
2023/09/02 03:38:41;;;;;;;22.55;10.65;;;20.90;98.30;;;;;;5030125;28;20064;-68
2023/09/02 03:41:45;;;;;;;25.70;12.13;;;20.90;98.30;;;;;;5030534;28;20039;-68
2023/09/02 03:44:49;;;;;;;22.77;12.30;;;20.90;98.10;;;;;;5029293;28;20040;-68
2023/09/02 03:47:53;;;;;;;20.50;12.10;;;20.90;98.00;;;;;;5029605;28;20512;-68
2023/09/02 03:51:01;;;;;;;19.80;11.60;;;20.90;98.20;;;;;;5052380;28;20532;-68
2023/09/02 03:54:06;;;;;;;21.58;12.05;;;20.90;98.20;;;;;;5029491;28;20056;-68
2023/09/02 03:57:10;;;;;;;19.98;12.18;;;20.80;98.10;;;;;;5030518;28;20377;-68
2023/09/02 04:00:17;;;;;;;20.77;11.40;;;20.90;98.30;;;;;;5033745;28;20052;-68
2023/09/02 04:03:21;;;;;;;23.52;12.88;;;20.90;98.20;;;;;;5033844;28;20390;-68
2023/09/02 04:06:26;;;;;;;21.63;12.52;;;20.80;98.10;;;;;;5032894;28;20090;-68
2023/09/02 04:09:30;;;;;;;25.95;12.20;;;20.80;98.20;;;;;;5033388;28;20044;-68
2023/09/02 04:12:33;;;;;;;27.92;12.50;;;20.80;98.50;;;;;;5033702;28;20044;-68
2023/09/02 04:15:37;;;;;;;22.15;12.50;;;20.80;98.20;;;;;;5032349;28;20041;-68
2023/09/02 04:18:41;;;;;;;24.05;12.80;;;20.80;98.40;;;;;;5032299;28;20052;-68
2023/09/02 04:21:46;;;;;;;26.60;11.27;;;20.80;98.30;;;;;;5033349;28;20255;-68
2023/09/02 04:24:51;;;;;;;24.50;13.30;;;20.80;98.30;;;;;;5032603;28;20049;-69
2023/09/02 04:27:55;;;;;;;24.73;12.85;;;20.80;98.30;;;;;;5032467;28;20048;-69
2023/09/02 04:30:59;;;;;;;22.83;11.75;;;20.80;98.40;;;;;;5033355;28;20358;-69
2023/09/02 04:34:06;;;;;;;21.90;11.50;;;20.70;98.30;;;;;;5032159;28;20060;-69
2023/09/02 04:37:11;;;;;;;21.25;14.43;;;20.70;98.10;;;;;;5032352;28;20690;-68
2023/09/02 04:40:19;;;;;;;27.25;12.73;;;20.70;98.30;;;;;;5032977;28;20045;-69
2023/09/02 04:43:23;;;;;;;27.63;12.32;;;20.70;98.40;;;;;;5033285;28;20060;-69
2023/09/02 04:46:30;;;;;;;30.63;12.23;;;20.80;98.10;;;;;;5032698;28;20385;-68
2023/09/02 04:49:34;;;;;;;29.70;13.30;;;20.80;98.40;;;;;;5032401;28;20060;-69
2023/09/02 04:52:38;;;;;;;24.77;12.57;;;20.90;98.50;;;;;;5032136;28;20405;-68
2023/09/02 04:55:43;;;;;;;24.30;11.48;;;20.80;98.40;;;;;;5032231;28;20044;-69
2023/09/02 04:58:52;;;;;;;24.88;12.02;;;20.90;98.10;;;;;;5031960;28;20052;-68
2023/09/02 05:01:58;;;;;;;27.55;10.65;;;20.90;98.00;;;;;;5032053;28;20040;-67
2023/09/02 05:05:01;;;;;;;17.25;10.02;;;21.00;97.80;;;;;;5032637;28;20064;-67
2023/09/02 05:08:06;;;;;;;28.88;10.30;;;21.00;97.90;;;;;;5031719;28;20049;-68
2023/09/02 05:11:10;;;;;;;21.08;9.13;;;21.20;97.80;;;;;;5031758;28;20039;-68
2023/09/02 05:14:15;;;;;;;29.02;10.30;;;21.30;97.60;;;;;;5032425;28;20504;-68
2023/09/02 05:17:20;;;;;;;19.73;10.30;;;21.80;97.30;;;;;;5054425;28;20040;-68
2023/09/02 05:20:24;;;;;;;22.70;11.15;;;21.70;97.20;;;;;;5031506;28;20060;-68
2023/09/02 05:23:28;;;;;;;18.08;9.95;;;21.80;96.70;;;;;;5031066;28;20045;-68
2023/09/02 05:26:34;;;;;;;27.30;11.02;;;22.00;96.50;;;;;;5031298;28;20041;-68
2023/09/02 05:29:38;;;;;;;22.13;10.38;;;22.30;96.10;;;;;;5031897;28;20492;-68
2023/09/02 05:32:42;;;;;;;23.98;10.43;;;22.30;95.90;;;;;;5031696;28;20072;-67
2023/09/02 05:35:46;;;;;;;28.52;15.75;;;22.60;95.40;;;;;;5031533;28;20064;-67
2023/09/02 05:38:50;;;;;;;21.92;13.32;;;22.60;95.50;;;;;;5031654;28;20064;-67
2023/09/02 05:41:54;;;;;;;23.40;15.98;;;22.90;95.50;;;;;;5031953;28;20052;-68
2023/09/02 05:44:58;;;;;;;21.05;12.13;;;24.70;92.70;;;;;;5031389;28;20041;-68
2023/09/02 05:48:02;;;;;;;18.35;9.93;;;25.60;91.50;;;;;;5031454;28;20048;-68
2023/09/02 05:51:06;;;;;;;26.50;10.00;;;25.50;91.70;;;;;;5031096;28;20612;-66
2023/09/02 05:54:10;;;;;;;24.17;10.15;;;26.00;90.80;;;;;;5031551;28;20056;-65
2023/09/02 05:57:14;;;;;;;24.45;10.65;;;26.20;90.60;;;;;;5031534;28;20048;-65
2023/09/02 06:00:21;;;;;;;18.67;9.85;;;26.30;90.20;;;;;;5031021;28;20056;-65
2023/09/02 06:03:25;;;;;;;24.88;10.05;;;26.30;90.30;;;;;;5031230;28;20049;-65
2023/09/02 06:06:29;;;;;;;17.55;10.95;;;26.20;89.80;;;;;;5031514;28;20219;-65
2023/09/02 06:09:33;;;;;;;20.27;10.27;;;26.10;90.20;;;;;;5031432;28;20048;-65
2023/09/02 06:12:37;;;;;;;20.90;11.05;;;25.80;90.90;;;;;;5031399;28;20048;-65
2023/09/02 06:15:41;;;;;;;21.40;12.02;;;25.90;90.70;;;;;;5031187;28;20052;-65
2023/09/02 06:18:45;;;;;;;26.95;13.23;;;25.90;90.60;;;;;;5031210;28;20052;-66
2023/09/02 06:21:48;;;;;;;22.10;12.55;;;25.70;90.80;;;;;;5031000;28;20040;-66
2023/09/02 06:24:59;;;;;;;20.45;12.52;;;25.60;91.30;;;;;;5030839;28;20052;-66
2023/09/02 06:28:03;;;;;;;21.65;11.32;;;25.90;91.00;;;;;;5031202;28;20504;-66
2023/09/02 06:31:11;;;;;;;23.70;12.73;;;26.10;90.60;;;;;;5030730;28;20057;-65
2023/09/02 06:34:16;;;;;;;23.90;12.88;;;26.20;90.30;;;;;;5030562;28;20053;-67
2023/09/02 06:37:21;;;;;;;26.17;13.80;;;26.00;90.60;;;;;;5030790;28;20060;-67
2023/09/02 06:40:25;;;;;;;22.25;14.27;;;26.10;90.60;;;;;;5030972;28;20065;-66
2023/09/02 06:43:28;;;;;;;25.38;14.10;;;26.10;90.70;;;;;;5030620;28;20401;-66
2023/09/02 06:46:35;;;;;;;26.52;13.02;;;26.00;90.40;;;;;;5030988;28;20048;-67
2023/09/02 06:49:39;;;;;;;25.27;13.70;;;26.20;90.50;;;;;;5030048;28;20401;-67
2023/09/02 06:52:43;;;;;;;23.52;11.27;;;26.50;90.40;;;;;;5030742;28;20045;-67
2023/09/02 06:55:48;;;;;;;31.02;12.90;;;26.90;89.00;;;;;;5029701;28;20040;-67
2023/09/02 06:58:51;;;;;;;17.70;10.40;;;27.20;88.60;;;;;;5030527;28;20040;-68
2023/09/02 07:01:55;;;;;;;24.50;10.07;;;27.40;87.90;;;;;;5030528;28;20504;-67
2023/09/02 07:04:59;;;;;;;20.55;10.43;;;27.60;86.90;;;;;;5030567;28;20052;-66
2023/09/02 07:08:03;;;;;;;18.38;8.68;;;27.60;87.10;;;;;;5030381;28;20064;-67
2023/09/02 07:11:09;;;;;;;24.75;9.02;;;27.80;86.60;;;;;;5030566;28;20381;-68
2023/09/02 07:14:13;;;;;;;17.30;7.20;;;28.10;86.90;;;;;;5030366;28;20049;-67
2023/09/02 07:17:18;;;;;;;15.35;7.22;;;28.30;84.60;;;;;;5030615;28;20053;-67
2023/09/02 07:20:22;;;;;;;14.57;7.25;;;28.30;85.00;;;;;;5030018;28;20044;-68
2023/09/02 07:23:27;;;;;;;16.00;7.30;;;28.40;84.20;;;;;;5030185;28;20044;-67
2023/09/02 07:26:32;;;;;;;18.15;7.47;;;28.10;85.40;;;;;;5030596;28;20405;-67
2023/09/02 07:29:36;;;;;;;24.17;8.32;;;28.40;84.70;;;;;;5030470;28;20097;-68
2023/09/02 07:32:40;;;;;;;20.95;7.55;;;28.70;84.50;;;;;;5031874;28;20053;-67
2023/09/02 07:35:44;;;;;;;18.10;6.93;;;29.00;83.20;;;;;;5034100;28;20052;-67
2023/09/02 07:38:48;;;;;;;15.20;7.32;;;29.00;82.20;;;;;;5033696;28;20503;-67
2023/09/02 07:41:52;;;;;;;17.20;7.18;;;29.10;82.10;;;;;;5032930;28;20245;-69
2023/09/02 07:44:56;;;;;;;14.60;7.13;;;29.30;82.00;;;;;;5033895;28;20095;-67
2023/09/02 07:48:01;;;;;;;17.77;7.57;;;29.50;81.20;;;;;;5033812;28;20049;-68
2023/09/02 07:51:05;;;;;;;18.58;7.88;;;29.60;80.40;;;;;;5033652;28;20389;-67
2023/09/02 07:54:09;;;;;;;37.40;9.15;;;29.50;80.80;;;;;;5033216;28;20040;-68
2023/09/02 07:57:13;;;;;;;20.17;8.20;;;29.50;80.70;;;;;;5033471;28;20049;-68
2023/09/02 08:00:17;;;;;;;19.30;8.38;;;29.70;80.20;;;;;;5033299;28;20060;-69
2023/09/02 08:03:21;;;;;;;19.70;8.48;;;29.70;80.10;;;;;;5032497;28;20072;-68
2023/09/02 08:06:25;;;;;;;19.58;7.30;;;29.80;80.00;;;;;;5032397;28;20052;-68
2023/09/02 08:09:34;;;;;;;11.32;6.72;;;29.90;80.10;;;;;;5033357;28;20040;-69
2023/09/02 08:12:39;;;;;;;14.93;6.55;;;30.00;79.60;;;;;;5032966;28;20036;-68
2023/09/02 08:15:43;;;;;;;13.35;5.53;;;30.00;79.10;;;;;;5033100;28;20044;-68
2023/09/02 08:18:47;;;;;;;10.60;6.00;;;30.00;79.00;;;;;;5033132;28;20510;-68
2023/09/02 08:21:51;;;;;;;18.27;7.85;;;30.10;79.50;;;;;;5033248;28;20056;-69
2023/09/02 08:24:56;;;;;;;23.95;7.22;;;30.10;78.80;;;;;;5032918;28;20047;-68
2023/09/02 08:28:00;;;;;;;20.85;6.47;;;30.10;78.90;;;;;;5032938;28;20112;-67
2023/09/02 08:31:04;;;;;;;19.92;7.25;;;30.10;78.70;;;;;;5033264;28;20048;-68
2023/09/02 08:34:09;;;;;;;17.38;6.07;;;29.90;79.00;;;;;;5032441;28;20056;-68
2023/09/02 08:37:12;;;;;;;13.50;6.15;;;29.80;79.20;;;;;;5033041;28;20148;-68
2023/09/02 08:40:16;;;;;;;13.68;5.93;;;29.90;79.20;;;;;;5032492;28;20642;-65
2023/09/02 08:43:21;;;;;;;25.83;7.57;;;29.90;79.00;;;;;;5032335;28;20044;-69
2023/09/02 08:46:29;;;;;;;13.73;6.30;;;29.70;78.70;;;;;;5032482;28;20405;-68
2023/09/02 08:49:34;;;;;;;18.75;6.60;;;29.70;79.40;;;;;;5032787;28;20048;-69
2023/09/02 08:52:40;;;;;;;13.73;5.95;;;29.80;79.50;;;;;;5032442;28;20053;-67
2023/09/02 08:55:45;;;;;;;12.93;5.38;;;29.80;79.30;;;;;;5032662;28;20040;-67
2023/09/02 08:58:51;;;;;;;14.23;6.18;;;29.90;79.40;;;;;;5032204;28;20044;-68
2023/09/02 09:01:56;;;;;;;14.18;6.63;;;30.00;79.20;;;;;;5032325;28;20052;-67
2023/09/02 09:05:03;;;;;;;21.83;7.35;;;30.10;78.70;;;;;;5031689;28;20112;-68
2023/09/02 09:08:09;;;;;;;9.07;5.13;;;30.00;77.40;;;;;;5031472;28;20523;-67
2023/09/02 09:11:15;;;;;;;10.30;5.30;;;30.00;77.60;;;;;;5031960;28;20068;-67
2023/09/02 09:14:23;;;;;;;13.30;5.28;;;30.00;77.30;;;;;;5032016;28;20052;-66
2023/09/02 09:17:28;;;;;;;11.32;5.55;;;30.00;77.40;;;;;;5031937;28;20048;-66
2023/09/02 09:20:33;;;;;;;16.05;5.40;;;30.00;77.30;;;;;;5031772;28;20052;-66
2023/09/02 09:23:37;;;;;;;15.90;6.28;;;30.10;76.90;;;;;;5031667;28;20041;-66
2023/09/02 09:26:45;;;;;;;11.63;5.65;;;29.90;77.30;;;;;;5031292;28;20056;-66
2023/09/02 09:29:48;;;;;;;11.27;5.47;;;29.90;77.00;;;;;;5031247;28;20044;-67
2023/09/02 09:33:01;;;;;;;14.65;5.85;;;29.90;76.20;;;;;;5031210;28;20547;-67
2023/09/02 09:36:12;;;;;;;12.85;6.05;;;29.80;76.00;;;;;;5031624;28;20492;-68
2023/09/02 09:39:17;;;;;;;9.75;5.40;;;29.70;76.80;;;;;;5031538;28;20057;-68
2023/09/02 09:42:34;;;;;;;19.10;6.10;;;29.80;77.20;;;;;;5031545;28;20048;-68
2023/09/02 09:45:51;;;;;;;12.70;6.10;;;29.70;76.50;;;;;;5031455;28;20053;-67
2023/09/02 09:49:01;;;;;;;9.75;5.13;;;29.70;76.80;;;;;;5030406;28;20056;-67
2023/09/02 09:52:12;;;;;;;14.80;5.75;;;29.70;76.90;;;;;;5031402;28;20041;-67
2023/09/02 09:55:24;;;;;;;8.98;5.13;;;29.90;76.80;;;;;;5030506;28;20048;-68
2023/09/02 09:58:28;;;;;;;19.58;5.55;;;30.00;76.30;;;;;;5031055;28;20048;-68
2023/09/02 10:01:32;;;;;;;15.10;5.82;;;30.10;76.90;;;;;;5031007;28;20504;-67
2023/09/02 10:04:36;;;;;;;14.90;5.75;;;30.30;76.60;;;;;;5031317;28;20397;-66
2023/09/02 10:07:41;;;;;;;22.95;6.22;;;30.40;75.50;;;;;;5031223;28;20048;-65
2023/09/02 10:10:45;;;;;;;14.98;6.22;;;30.60;74.60;;;;;;5029393;28;20044;-66
2023/09/02 10:13:53;;;;;;;24.08;6.78;;;30.50;74.20;;;;;;5030874;28;20044;-66
2023/09/02 10:16:59;;;;;;;22.13;6.88;;;30.40;74.70;;;;;;5030120;28;20052;-65
2023/09/02 10:20:04;;;;;;;7.72;5.18;;;30.40;74.70;;;;;;5030495;28;20162;-66
2023/09/02 10:23:09;;;;;;;12.63;6.88;;;30.50;75.20;;;;;;5030834;28;20040;-65
2023/09/02 10:26:34;;;;;;;12.75;5.78;;;30.60;76.00;;;;;;5031112;28;20056;-64
2023/09/02 10:29:43;;;;;;;16.85;6.75;;;30.80;74.90;;;;;;5030900;28;20040;-64
2023/09/02 10:32:52;;;;;;;11.43;6.35;;;30.90;74.10;;;;;;5030823;28;20409;-65
2023/09/02 10:36:00;;;;;;;9.25;5.07;;;30.90;74.10;;;;;;5030929;28;20389;-65
2023/09/02 10:39:11;;;;;;;10.82;5.72;;;30.90;74.10;;;;;;5030689;28;20048;-64
2023/09/02 10:42:15;;;;;;;13.75;6.03;;;30.80;74.00;;;;;;5029792;28;20052;-65
2023/09/02 10:45:20;;;;;;;12.98;5.95;;;30.80;74.10;;;;;;5030706;28;20044;-65
2023/09/02 10:48:24;;;;;;;10.65;5.70;;;30.80;74.50;;;;;;5030529;28;20045;-66
2023/09/02 10:51:29;;;;;;;16.80;6.47;;;30.80;74.90;;;;;;5030731;28;20060;-66
2023/09/02 10:55:04;;;;;;;11.73;5.05;;;30.60;74.60;;;;;;5030717;28;20500;-66
2023/09/02 10:58:09;;;;;;;15.10;5.70;;;30.60;76.80;;;;;;5030513;28;20503;-66
2023/09/02 11:01:13;;;;;;;10.95;5.25;;;30.50;77.70;;;;;;5030713;28;20044;-66
2023/09/02 11:04:39;;;;;;;18.30;7.15;;;30.60;77.20;;;;;;5030361;28;20048;-66
2023/09/02 11:07:43;;;;;;;15.80;5.72;;;30.60;77.60;;;;;;5034535;28;20044;-66
2023/09/02 11:10:53;;;;;;;11.73;5.55;;;30.80;77.60;;;;;;5034803;28;20048;-66
2023/09/02 11:14:06;;;;;;;10.60;5.80;;;30.80;77.00;;;;;;5033441;28;20045;-66
2023/09/02 11:17:29;;;;;;;10.75;6.07;;;30.80;76.90;;;;;;5034492;28;20510;-64
2023/09/02 11:20:49;;;;;;;20.50;6.28;;;30.80;77.20;;;;;;5034234;28;20077;-65
2023/09/02 11:23:52;;;;;;;12.02;5.50;;;30.90;77.00;;;;;;5033582;28;20044;-66
2023/09/02 11:26:58;;;;;;;14.52;5.57;;;31.00;76.60;;;;;;5034235;28;20048;-66
2023/09/02 11:30:09;;;;;;;14.65;5.60;;;31.00;76.90;;;;;;5034797;28;20048;-66
2023/09/02 11:33:18;;;;;;;12.15;5.57;;;31.00;77.00;;;;;;5034071;28;20076;-66
2023/09/02 11:36:24;;;;;;;9.73;5.10;;;31.00;76.40;;;;;;5034625;28;20052;-66
2023/09/02 11:39:29;;;;;;;10.93;5.97;;;31.00;77.00;;;;;;5033265;28;20064;-66
2023/09/02 11:42:33;;;;;;;12.60;5.53;;;31.10;76.30;;;;;;5034278;28;20052;-66
2023/09/02 11:45:39;;;;;;;7.45;4.85;;;31.10;76.30;;;;;;5033938;28;20045;-66
2023/09/02 11:48:43;;;;;;;11.55;5.68;;;31.10;76.40;;;;;;5034165;28;20560;-65
2023/09/02 11:51:47;;;;;;;29.52;7.88;;;31.10;76.00;;;;;;5034390;28;20052;-65
2023/09/02 11:54:51;;;;;;;17.58;6.25;;;31.10;77.20;;;;;;5034019;28;20492;-65
2023/09/02 11:57:55;;;;;;;12.65;6.50;;;31.10;75.90;;;;;;5034163;28;20049;-65
2023/09/02 12:01:01;;;;;;;16.33;6.10;;;32.20;75.10;;;;;;5033694;28;20053;-64
2023/09/02 12:04:05;;;;;;;16.90;5.75;;;33.30;73.30;;;;;;5033755;28;20044;-64
2023/09/02 12:07:10;;;;;;;15.63;5.70;;;34.60;71.60;;;;;;5034111;28;20056;-64
2023/09/02 12:10:16;;;;;;;15.50;7.05;;;35.10;70.30;;;;;;5034186;28;20139;-64
2023/09/02 12:13:20;;;;;;;14.63;5.18;;;35.30;69.60;;;;;;5033592;28;20477;-67
2023/09/02 12:16:26;;;;;;;12.48;5.35;;;35.10;70.00;;;;;;5033792;28;20052;-65
2023/09/02 12:19:34;;;;;;;11.02;5.78;;;34.90;71.50;;;;;;5032853;28;20053;-64
2023/09/02 12:22:41;;;;;;;15.13;5.65;;;35.10;71.10;;;;;;5032836;28;20056;-64
2023/09/02 12:26:08;;;;;;;12.13;5.88;;;34.90;71.10;;;;;;5033497;28;20048;-65
2023/09/02 12:29:19;;;;;;;14.18;6.05;;;35.10;70.90;;;;;;5033006;28;20505;-64
2023/09/02 12:32:24;;;;;;;20.92;6.35;;;34.90;71.20;;;;;;5032938;28;20393;-64
2023/09/02 12:35:28;;;;;;;17.42;6.38;;;34.60;71.70;;;;;;5033268;28;20052;-65
2023/09/02 12:38:55;;;;;;;10.93;5.50;;;34.50;72.20;;;;;;5032926;28;20048;-64
2023/09/02 12:42:00;;;;;;;16.92;6.22;;;34.20;73.10;;;;;;5033128;28;20061;-66
2023/09/02 12:45:06;;;;;;;13.63;5.93;;;33.60;73.90;;;;;;5032618;28;20041;-66
2023/09/02 12:48:10;;;;;;;15.75;6.38;;;33.10;75.00;;;;;;5032049;28;20056;-66
2023/09/02 12:51:27;;;;;;;15.43;6.30;;;32.70;76.70;;;;;;5031281;28;20048;-66
2023/09/02 12:54:31;;;;;;;13.65;6.28;;;32.20;77.40;;;;;;5043165;28;20049;-66
2023/09/02 12:57:35;;;;;;;16.23;6.32;;;31.90;78.20;;;;;;5032885;28;20049;-66
2023/09/02 13:00:40;;;;;;;9.05;5.95;;;31.60;78.50;;;;;;5032407;28;20052;-66
2023/09/02 13:03:44;;;;;;;10.27;6.00;;;31.40;79.00;;;;;;5032688;28;20152;-66
2023/09/02 13:06:47;;;;;;;20.33;7.07;;;31.30;79.60;;;;;;5032456;28;20469;-66
2023/09/02 13:09:52;;;;;;;18.63;6.72;;;31.20;79.90;;;;;;5032481;28;20044;-66
2023/09/02 13:12:57;;;;;;;12.73;6.53;;;31.10;80.30;;;;;;5032104;28;20048;-66
2023/09/02 13:16:01;;;;;;;14.43;5.80;;;31.00;80.90;;;;;;5032402;28;20492;-66
2023/09/02 13:19:06;;;;;;;10.20;5.45;;;30.90;80.50;;;;;;5032309;28;20095;-66
2023/09/02 13:22:10;;;;;;;11.68;5.50;;;30.90;80.20;;;;;;5032394;28;20500;-66
2023/09/02 13:25:16;;;;;;;14.30;5.75;;;30.90;80.10;;;;;;5032481;28;20044;-68
2023/09/02 13:28:20;;;;;;;23.00;5.43;;;31.00;80.30;;;;;;5032236;28;20052;-68
2023/09/02 13:31:24;;;;;;;11.93;5.20;;;31.00;80.00;;;;;;5032075;28;20052;-66
2023/09/02 13:34:30;;;;;;;9.63;5.05;;;31.00;79.60;;;;;;5032036;28;20128;-65
2023/09/02 13:37:35;;;;;;;11.85;5.57;;;31.00;79.30;;;;;;5032134;28;20475;-67
2023/09/02 13:40:40;;;;;;;14.63;5.75;;;31.00;79.30;;;;;;5031779;28;20057;-66
2023/09/02 13:43:45;;;;;;;13.25;5.55;;;31.80;77.80;;;;;;5031887;28;20385;-66
2023/09/02 13:46:53;;;;;;;13.98;5.28;;;32.60;76.70;;;;;;5031612;28;20062;-68
2023/09/02 13:49:57;;;;;;;10.02;5.18;;;33.60;74.60;;;;;;5031445;28;20044;-67
2023/09/02 13:53:02;;;;;;;11.63;5.13;;;33.80;73.40;;;;;;5031423;28;20044;-65
2023/09/02 13:56:08;;;;;;;14.30;6.13;;;34.30;72.90;;;;;;5030494;28;20048;-66
2023/09/02 13:59:13;;;;;;;17.25;5.53;;;34.50;72.40;;;;;;5031389;28;20044;-66
2023/09/02 14:02:21;;;;;;;17.25;5.55;;;34.70;72.50;;;;;;5031347;28;20155;-66
2023/09/02 14:05:24;;;;;;;16.13;5.28;;;34.70;72.10;;;;;;5031476;28;20040;-67
2023/09/02 14:08:38;;;;;;;13.18;5.30;;;34.50;72.40;;;;;;5031266;28;20064;-66
2023/09/02 14:11:42;;;;;;;11.55;4.95;;;34.50;72.00;;;;;;5031449;28;20040;-66
2023/09/02 14:14:46;;;;;;;14.35;5.25;;;34.50;72.00;;;;;;5031347;28;20048;-66
2023/09/02 14:17:50;;;;;;;14.40;5.47;;;34.70;71.50;;;;;;5031377;28;20048;-66
2023/09/02 14:20:54;;;;;;;19.50;5.80;;;34.80;71.50;;;;;;5030153;28;20512;-66
2023/09/02 14:23:58;;;;;;;16.30;5.70;;;34.30;71.80;;;;;;5030967;28;20492;-66
2023/09/02 14:27:08;;;;;;;12.00;5.10;;;34.10;72.40;;;;;;5030977;28;20401;-66
2023/09/02 14:30:12;;;;;;;9.82;5.05;;;34.30;71.90;;;;;;5031066;28;20384;-67
2023/09/02 14:33:17;;;;;;;16.67;7.93;;;34.40;71.80;;;;;;5030461;28;20381;-68
2023/09/02 14:36:21;;;;;;;12.73;5.43;;;33.90;72.10;;;;;;5029978;28;20064;-69
2023/09/02 14:39:25;;;;;;;13.85;5.70;;;33.20;73.30;;;;;;5030341;28;20048;-69
2023/09/02 14:42:32;;;;;;;9.95;5.43;;;32.70;74.50;;;;;;5028715;28;20048;-69
2023/09/02 14:45:36;;;;;;;12.73;5.50;;;32.20;75.70;;;;;;5031013;28;20048;-69
2023/09/02 14:48:40;;;;;;;13.60;5.97;;;31.90;76.30;;;;;;5030861;28;20060;-69
2023/09/02 14:51:44;;;;;;;15.32;5.50;;;31.60;76.40;;;;;;5030579;28;20048;-69
2023/09/02 14:54:48;;;;;;;13.23;5.70;;;31.40;77.00;;;;;;5030692;28;20041;-69
2023/09/02 14:57:52;;;;;;;16.55;5.35;;;31.30;77.10;;;;;;5030913;28;20045;-69
2023/09/02 15:00:56;;;;;;;17.02;5.60;;;31.20;76.90;;;;;;5030762;28;20064;-69
2023/09/02 15:04:00;;;;;;;18.73;5.32;;;31.00;76.90;;;;;;5030901;28;20052;-69
2023/09/02 15:07:03;;;;;;;16.27;5.32;;;30.80;77.30;;;;;;5030849;28;20060;-69
2023/09/02 15:10:09;;;;;;;12.13;5.57;;;30.70;77.10;;;;;;5030864;28;20068;-69
2023/09/02 15:13:13;;;;;;;12.13;4.95;;;30.70;76.80;;;;;;5030804;28;20049;-69
2023/09/02 15:16:18;;;;;;;16.10;5.47;;;30.60;76.20;;;;;;5030813;28;20045;-70
2023/09/02 15:19:24;;;;;;;9.80;5.32;;;30.50;77.00;;;;;;5030688;28;20040;-70
2023/09/02 15:22:28;;;;;;;15.07;5.20;;;30.50;77.80;;;;;;5030485;28;20401;-69
2023/09/02 15:25:32;;;;;;;11.98;5.40;;;30.40;77.70;;;;;;5030966;28;20037;-69
2023/09/02 15:28:40;;;;;;;15.52;5.95;;;30.30;77.80;;;;;;5030413;28;20048;-69
2023/09/02 15:31:47;;;;;;;11.13;5.32;;;30.20;77.60;;;;;;5030271;28;20056;-69
2023/09/02 15:34:51;;;;;;;13.90;5.15;;;30.10;77.80;;;;;;5029427;28;20057;-70
2023/09/02 15:37:55;;;;;;;10.23;5.10;;;30.10;77.80;;;;;;5030825;28;20048;-69
2023/09/02 15:41:02;;;;;;;12.98;5.40;;;30.10;78.10;;;;;;5030139;28;20053;-69
2023/09/02 15:44:06;;;;;;;11.25;5.13;;;30.00;78.00;;;;;;5030125;28;20224;-69
2023/09/02 15:47:10;;;;;;;13.85;5.45;;;29.90;78.00;;;;;;5030213;28;20044;-69
2023/09/02 15:50:14;;;;;;;17.80;5.70;;;29.90;78.10;;;;;;5030069;28;20172;-69